Kolmaarden Stroemsfors, Sweden

2:06 PM CEST on August 31, 2014 (GMT +0200)
Krokek | Change Station
CLOSE
Current Station
Personal Weather Station
Location: Kolmården, Östergötlands län
Elevation: 161 ft
Nearby Weather Stations

Elev 161 ft 58.67 °N, 16.36 °E | Updated 5 seconds ago

Scattered Clouds
Scattered Clouds
62.6 °F
Feels Like 62.6 °F
N
0.3
Wind Variable Wind from ENE
Gusts 3.1 mph

Today
High -- | Low -- °F
--% Chance of Precip.
Yesterday
High -- | Low -- °F
Precip. -- in
5:50 AM 7:58 PM
Waxing Crescent, 30% visible
Pressure 30.12 in
Visibility 6.2 miles
Clouds Few 3700 ft
Scattered Clouds 4900 ft
Dew Point 46 °F
Humidity 55%
Rainfall 0.00 in
Snow Depth Not available.
UV 4 out of 12
Pollen Not available.
Air Quality Not available.
Flu Activity Not available.
METAR ESSP 311150Z 08011KT 9999 FEW037 SCT049 17/08 Q1020

More Conditions Fewer Conditions

Pressure 30.12 in
Visibility 6.2 miles
Clouds Few 3700 ft
Scattered Clouds 4900 ft
Dew Point 46 °F
Humidity 55%
Rainfall 0.00 in
Snow Depth Not available.
UV 4 out of 12
Pollen Not available.
Air Quality Not available.
Flu Activity Not available.
METAR ESSP 311150Z 08011KT 9999 FEW037 SCT049 17/08 Q1020

More Conditions Fewer Conditions

10-Day Weather Forecast

Almanac

Astronomy

Aug. 31, 2014 Rise Set
Actual Time 5:50 AM CEST 7:58 PM CEST
Civil Twilight 5:06 AM CEST 8:41 PM CEST
Nautical Twilight 4:11 AM CEST 9:36 PM CEST
Astronomical Twilight 3:00 AM CEST 10:45 PM CEST
Moon 12:40 PM CEST 9:36 PM CEST
Length of Visible Light 15h 34m
Length of Day
14h 08m
Tomorrow will be 5m 4s shorter.
Waxing Crescent, 30% of the Moon is Illuminated
Today
Waxing Crescent
Sep 2
First Quarter
Sep 8
Full
Sep 15
Last Quarter
Sep 24
New

Yesterday's Extremes

Country Highs Country Lows

Community

WunderPhotos

Upload Photos

1,748,853 photos uploaded!

Nearby

Snow Depth

Not available.

Earthquake Activity

City Distance Mag. Time & Date
No recent earthquake activity has been reported nearby.
Minimum magnitude displayed is 2.5.

Coastal Water Temperatures

Place Temperature
No Stations Reporting

Nearby Weather Stations